Time;durP1;ratioP1;P1;durP2;ratioP2;P2;SDS_P1;SDS_P2;PMS_P1;PMS_P2;Temp;Humidity;BMP_temperature;BMP_pressure;BME280_temperature;BME280_humidity;BME280_pressure;Samples;Min_cycle;Max_cycle;Signal;HPM_P1;HPM_P2
2021/12/12 00:03:37;;;;;;;5.63;4.20;;;;;;;4.09;75.67;100975.47;10225648;28;20047;-62
2021/12/12 00:08:42;;;;;;;7.38;4.53;;;;;;;3.99;75.76;100978.47;10223122;28;20057;-62
2021/12/12 00:13:50;;;;;;;6.90;4.28;;;;;;;3.98;75.50;100983.78;10230521;28;20130;-62
2021/12/12 00:18:52;;;;;;;5.70;3.90;;;;;;;3.86;75.52;100977.28;10224631;28;20561;-63
2021/12/12 00:23:54;;;;;;;4.90;4.03;;;;;;;3.88;75.33;100994.72;10232286;28;20128;-62
2021/12/12 00:28:56;;;;;;;9.68;4.90;;;;;;;3.87;74.62;100990.38;10233412;28;20134;-62
2021/12/12 00:33:58;;;;;;;5.50;3.70;;;;;;;3.91;74.79;101006.06;10231877;28;20071;-62
2021/12/12 00:39:09;;;;;;;5.82;4.32;;;;;;;3.78;74.90;101003.06;10231869;28;20062;-61
2021/12/12 00:44:14;;;;;;;7.35;3.67;;;;;;;3.71;75.31;101002.44;10231974;28;20058;-62
2021/12/12 00:49:17;;;;;;;6.07;3.88;;;;;;;3.61;75.60;101009.00;10251606;28;20094;-61
2021/12/12 00:54:19;;;;;;;8.32;3.88;;;;;;;3.57;75.82;100999.50;10233771;28;20079;-62
2021/12/12 00:59:20;;;;;;;5.80;3.42;;;;;;;3.49;76.24;101010.34;10230426;28;20542;-62
2021/12/12 01:04:35;;;;;;;9.38;4.93;;;;;;;3.54;75.84;101011.88;10231854;28;20106;-62
2021/12/12 01:09:44;;;;;;;8.27;4.53;;;;;;;3.49;76.38;101029.59;10261142;28;20138;-62
2021/12/12 01:14:51;;;;;;;9.85;3.85;;;;;;;3.58;75.62;101041.56;10249020;28;20054;-63
2021/12/12 01:20:14;;;;;;;6.32;3.78;;;;;;;3.54;75.35;101022.41;10232399;28;20081;-60
2021/12/12 01:25:23;;;;;;;8.02;4.50;;;;;;;3.74;75.18;101044.47;10265421;28;20059;-60
2021/12/12 01:30:26;;;;;;;7.35;4.10;;;;;;;3.76;74.73;101026.81;10234600;28;20130;-61
2021/12/12 01:35:28;;;;;;;6.05;4.00;;;;;;;3.84;74.37;101035.28;10235121;28;20192;-61
2021/12/12 01:40:30;;;;;;;7.47;4.80;;;;;;;3.83;74.50;101027.44;10238050;28;20134;-62
2021/12/12 01:45:38;;;;;;;10.23;5.05;;;;;;;3.51;74.66;101026.91;10265398;28;20059;-61
2021/12/12 01:50:44;;;;;;;10.00;4.95;;;;;;;3.51;75.65;101021.66;10235194;28;20078;-61
2021/12/12 01:56:04;;;;;;;7.25;5.20;;;;;;;3.40;76.04;101016.81;10222341;28;20129;-61
2021/12/12 02:01:10;;;;;;;11.45;6.07;;;;;;;3.28;76.07;101019.91;10264022;28;20042;-61
2021/12/12 02:06:15;;;;;;;12.38;6.95;;;;;;;3.30;76.48;101023.31;10233544;28;20055;-61
2021/12/12 02:11:20;;;;;;;12.00;5.97;;;;;;;3.33;76.49;101028.47;10236879;28;20047;-64
2021/12/12 02:16:26;;;;;;;9.88;5.35;;;;;;;3.32;76.78;101032.88;10233438;28;20143;-61
2021/12/12 02:21:39;;;;;;;9.70;5.93;;;;;;;3.38;76.68;101041.47;10275114;23;20047;-67
2021/12/12 02:37:34;;;;;;;8.48;6.20;;;;;;;3.17;77.35;101039.59;10269662;28;20061;-67
2021/12/12 02:42:38;;;;;;;7.15;5.82;;;;;;;3.26;77.56;101042.78;10267660;28;20057;-66
2021/12/12 02:47:40;;;;;;;10.13;6.60;;;;;;;3.32;77.43;101042.56;10269750;28;20196;-66
2021/12/12 02:52:47;;;;;;;10.60;6.78;;;;;;;3.30;77.34;101028.59;10251433;28;20064;-66
2021/12/12 02:57:52;;;;;;;10.27;6.70;;;;;;;3.39;77.08;101028.25;10269830;28;20072;-66
2021/12/12 03:02:58;;;;;;;10.13;6.55;;;;;;;3.41;76.90;101041.34;10251787;28;20038;-67
2021/12/12 03:08:00;;;;;;;11.05;6.78;;;;;;;3.24;77.55;101039.34;10269137;28;20138;-67
2021/12/12 03:13:04;;;;;;;11.57;6.82;;;;;;;3.24;77.73;101028.81;10286821;28;20051;-66
2021/12/12 03:18:20;;;;;;;9.77;7.25;;;;;;;3.25;77.50;101038.44;10268052;28;20311;-67
2021/12/12 03:23:25;;;;;;;11.80;7.43;;;;;;;3.34;77.37;101030.19;10266654;28;20043;-66
2021/12/12 03:28:31;;;;;;;9.60;7.32;;;;;;;3.23;77.65;101027.97;10265306;28;20126;-66
2021/12/12 03:33:33;;;;;;;12.30;7.25;;;;;;;3.27;77.90;101047.13;10264950;28;20058;-66
2021/12/12 03:38:37;;;;;;;12.20;6.90;;;;;;;3.33;77.84;101049.53;10264716;28;20049;-66
2021/12/12 03:43:39;;;;;;;13.80;7.37;;;;;;;3.31;77.74;101048.75;10283595;28;20039;-66
2021/12/12 03:48:43;;;;;;;8.80;6.15;;;;;;;3.45;77.35;101043.81;10246722;28;20301;-66
2021/12/12 03:53:45;;;;;;;11.77;7.47;;;;;;;3.42;77.32;101051.81;10264773;28;20109;-65
2021/12/12 03:58:48;;;;;;;10.25;6.97;;;;;;;3.41;77.15;101058.00;10248067;28;20316;-66
2021/12/12 04:03:52;;;;;;;12.63;7.07;;;;;;;3.36;77.11;101049.41;10263188;28;20715;-66
2021/12/12 04:08:54;;;;;;;11.82;6.88;;;;;;;3.50;77.11;101062.91;10263847;28;20045;-66
2021/12/12 04:13:56;;;;;;;9.80;7.53;;;;;;;3.42;77.27;101066.75;10283061;28;20137;-66
2021/12/12 04:18:59;;;;;;;13.63;7.55;;;;;;;3.27;77.64;101068.19;10265364;28;20480;-66
2021/12/12 04:24:00;;;;;;;11.63;7.03;;;;;;;3.38;77.97;101066.03;10228003;28;1068938;-66
2021/12/12 04:29:41;;;;;;;12.27;6.93;;;;;;;3.50;76.84;101065.56;10261346;28;20046;-67
2021/12/12 04:34:46;;;;;;;11.55;7.20;;;;;;;3.57;76.78;101073.22;10187144;28;20125;-67
2021/12/12 04:39:52;;;;;;;10.95;6.47;;;;;;;3.43;77.15;101079.84;10267192;28;20061;-65
2021/12/12 04:45:17;;;;;;;10.13;7.00;;;;;;;3.33;77.93;101082.00;10281204;28;20049;-66
2021/12/12 04:50:36;;;;;;;9.30;5.95;;;;;;;3.52;77.30;101076.03;10263407;28;20682;-66
2021/12/12 04:55:50;;;;;;;7.35;5.63;;;;;;;3.70;76.69;101092.88;10246731;28;20046;-66
2021/12/12 05:00:56;;;;;;;8.15;5.80;;;;;;;3.59;76.91;101092.44;10263536;28;20133;-66
2021/12/12 05:06:06;;;;;;;8.00;5.95;;;;;;;3.67;76.64;101085.13;10264382;28;20047;-65
2021/12/12 05:11:13;;;;;;;9.60;6.03;;;;;;;3.72;76.63;101089.28;10280735;28;20057;-66
2021/12/12 05:16:28;;;;;;;9.00;5.85;;;;;;;3.85;76.43;101086.19;10279741;28;20055;-67
2021/12/12 05:21:40;;;;;;;7.60;4.82;;;;;;;3.90;75.83;101081.56;10269496;28;20181;-67
2021/12/12 05:26:53;;;;;;;6.50;4.60;;;;;;;3.88;75.86;101094.81;10271280;28;20057;-67
2021/12/12 05:31:58;;;;;;;8.82;4.65;;;;;;;4.02;75.42;101093.41;10270511;28;20557;-66
2021/12/12 05:37:01;;;;;;;9.00;6.15;;;;;;;4.01;75.42;101104.88;10253451;28;20453;-66
2021/12/12 05:42:03;;;;;;;11.85;4.97;;;;;;;3.80;75.96;101081.09;10287018;28;20140;-66
2021/12/12 05:47:07;;;;;;;7.32;5.10;;;;;;;3.88;75.44;101100.06;10255907;28;20077;-66
2021/12/12 05:52:12;;;;;;;7.97;4.93;;;;;;;3.89;75.47;101099.16;10270333;28;20089;-66
2021/12/12 05:57:19;;;;;;;12.35;4.63;;;;;;;4.00;75.04;101097.88;10269817;28;20054;-65
2021/12/12 06:02:23;;;;;;;8.77;4.70;;;;;;;3.99;75.27;101097.00;10271283;28;20088;-66
2021/12/12 06:07:24;;;;;;;7.47;5.15;;;;;;;3.87;75.06;101093.09;10265241;28;20051;-66
2021/12/12 06:12:26;;;;;;;6.07;4.47;;;;;;;3.84;75.26;101095.88;10288645;28;20042;-66
2021/12/12 06:17:29;;;;;;;8.52;4.93;;;;;;;3.79;75.02;101089.91;10267350;28;20061;-66
2021/12/12 06:22:30;;;;;;;7.53;4.90;;;;;;;3.81;74.86;101097.75;10269144;28;20043;-66
2021/12/12 06:27:32;;;;;;;10.13;4.78;;;;;;;3.91;75.13;101103.53;10268575;28;20054;-67
2021/12/12 06:32:33;;;;;;;8.25;4.75;;;;;;;3.80;74.13;101104.78;10268459;28;20565;-66
2021/12/12 06:37:35;;;;;;;10.90;5.05;;;;;;;3.87;74.81;101116.81;10267574;28;20126;-67
2021/12/12 06:42:37;;;;;;;6.63;4.63;;;;;;;3.88;74.36;101118.50;10266580;28;20050;-66
2021/12/12 06:47:39;;;;;;;8.48;4.55;;;;;;;3.88;74.28;101110.59;10250856;28;20050;-66
2021/12/12 06:52:41;;;;;;;9.32;4.53;;;;;;;3.91;74.61;101108.78;10267559;28;20440;-65
2021/12/12 06:57:43;;;;;;;9.85;6.18;;;;;;;3.97;74.33;101116.44;10267025;28;20069;-65
2021/12/12 07:02:45;;;;;;;11.40;5.22;;;;;;;4.01;74.56;101111.00;10266566;28;20319;-66
2021/12/12 07:07:48;;;;;;;6.72;4.10;;;;;;;4.04;74.27;101116.16;10267383;28;20051;-67
2021/12/12 07:12:55;;;;;;;9.20;5.18;;;;;;;3.85;74.72;101126.53;10262976;28;20061;-65
2021/12/12 07:17:59;;;;;;;8.57;5.68;;;;;;;3.92;74.75;101121.91;10255951;28;20509;-65
2021/12/12 07:23:09;;;;;;;8.63;4.83;;;;;;;3.97;74.54;101124.34;10255956;28;20055;-65
2021/12/12 07:28:12;;;;;;;7.13;5.05;;;;;;;3.99;74.64;101140.94;10256372;28;20188;-65
2021/12/12 07:33:14;;;;;;;8.07;5.15;;;;;;;4.06;74.09;101145.91;10254135;28;20066;-65
2021/12/12 07:38:17;;;;;;;7.72;5.07;;;;;;;4.11;74.32;101140.47;10254880;28;20050;-65
2021/12/12 07:43:18;;;;;;;9.15;5.25;;;;;;;4.10;74.62;101133.50;10265564;28;20292;-64
2021/12/12 07:48:20;;;;;;;10.05;5.55;;;;;;;3.96;74.80;101136.66;10254768;28;20058;-64
2021/12/12 07:53:24;;;;;;;8.93;5.75;;;;;;;4.05;74.51;101149.50;10256983;28;20489;-65
2021/12/12 07:58:27;;;;;;;8.67;5.10;;;;;;;4.12;74.97;101144.81;10255978;28;20373;-65
2021/12/12 08:03:32;;;;;;;7.82;5.53;;;;;;;4.03;74.75;101132.00;10238039;28;20050;-64
2021/12/12 08:08:34;;;;;;;;;;;;;;;3.84;75.37;101140.63;10255560;28;20749;-64
2021/12/12 08:13:36;;;;;;;6.55;5.30;;;;;;;4.00;75.35;101135.63;10257495;28;20049;-65
2021/12/12 08:18:38;;;;;;;9.95;5.18;;;;;;;4.01;75.03;101133.88;10253918;28;20459;-65
2021/12/12 08:23:41;;;;;;;9.55;5.75;;;;;;;4.13;74.59;101130.75;10256519;28;20493;-65
2021/12/12 08:28:43;;;;;;;9.27;5.15;;;;;;;4.23;74.50;101139.13;10249073;28;20429;-65
2021/12/12 08:33:45;;;;;;;12.30;6.43;;;;;;;4.30;73.98;101151.16;10236377;28;20051;-64
2021/12/12 08:38:47;;;;;;;6.50;4.72;;;;;;;4.26;74.39;101131.09;10252580;28;20466;-65
2021/12/12 08:43:49;;;;;;;11.07;5.70;;;;;;;4.31;74.28;101149.34;10259856;28;20170;-66
2021/12/12 08:48:51;;;;;;;8.45;5.80;;;;;;;4.30;73.92;101137.13;10262154;28;20551;-64
2021/12/12 08:53:54;;;;;;;8.05;5.53;;;;;;;4.28;73.98;101142.44;10260396;28;20058;-66
2021/12/12 08:58:57;;;;;;;6.82;5.40;;;;;;;4.26;74.33;101141.63;10262036;28;20053;-63
2021/12/12 09:04:01;;;;;;;10.65;6.28;;;;;;;4.19;74.50;101143.66;10263041;28;20053;-64
2021/12/12 09:09:28;;;;;;;9.10;5.78;;;;;;;4.21;74.56;101155.00;10259617;28;20062;-63
2021/12/12 09:14:34;;;;;;;6.65;5.68;;;;;;;4.31;74.37;101154.63;10263942;28;20065;-63
2021/12/12 09:19:45;;;;;;;7.90;5.68;;;;;;;4.45;73.89;101162.00;10261804;28;20051;-63
2021/12/12 09:25:16;;;;;;;10.52;6.57;;;;;;;4.47;74.01;101160.16;10263434;28;20344;-63
2021/12/12 09:30:21;;;;;;;10.13;7.38;;;;;;;4.30;74.58;101160.84;10260449;28;20042;-64
2021/12/12 09:35:28;;;;;;;10.35;6.28;;;;;;;4.32;74.48;101156.34;10244068;28;20461;-63
2021/12/12 09:40:38;;;;;;;9.15;6.85;;;;;;;4.23;74.74;101160.22;10259776;28;20092;-62
2021/12/12 09:46:00;;;;;;;8.90;6.55;;;;;;;4.37;74.52;101159.69;10261595;28;20058;-63
2021/12/12 09:51:17;;;;;;;10.18;6.85;;;;;;;4.38;74.74;101162.25;10259167;28;20054;-64
2021/12/12 09:56:46;;;;;;;8.77;7.07;;;;;;;4.56;73.71;101134.28;10258550;28;20046;-65
2021/12/12 10:02:12;;;;;;;8.45;7.55;;;;;;;4.42;74.69;101152.44;10241127;28;20508;-63
2021/12/12 10:07:29;;;;;;;8.63;7.22;;;;;;;4.54;75.26;101146.66;10258807;28;20049;-63
2021/12/12 10:12:36;;;;;;;9.20;7.82;;;;;;;4.53;75.20;101144.06;10258914;28;20046;-63
2021/12/12 10:17:54;;;;;;;12.60;8.20;;;;;;;4.33;76.72;101155.44;10258181;28;20057;-63
2021/12/12 10:23:08;;;;;;;11.95;8.05;;;;;;;4.27;77.19;101140.72;10259568;28;20465;-62
2021/12/12 10:28:25;;;;;;;8.45;7.35;;;;;;;4.28;77.89;101136.31;10255047;28;20846;-64
2021/12/12 10:33:54;;;;;;;11.65;7.90;;;;;;;4.35;78.29;101128.06;10257334;28;20053;-65
2021/12/12 10:39:25;;;;;;;15.93;9.00;;;;;;;4.46;78.51;101127.66;10249842;28;20059;-65
2021/12/12 10:44:36;;;;;;;11.63;7.97;;;;;;;4.37;79.24;101133.31;10244618;28;20133;-64
2021/12/12 10:50:02;;;;;;;13.10;7.50;;;;;;;4.40;80.27;101106.81;10258311;28;20047;-64
2021/12/12 10:55:31;;;;;;;26.77;19.95;;;;;;;4.52;80.81;101101.03;10242971;28;20069;-65
2021/12/12 11:00:41;;;;;;;62.65;56.05;;;;;;;4.54;81.11;101098.34;10246671;28;20589;-65
2021/12/12 11:05:53;;;;;;;15.10;9.57;;;;;;;4.44;80.85;101092.56;10259131;28;20266;-62
2021/12/12 11:10:58;;;;;;;10.75;8.63;;;;;;;4.51;81.60;101093.19;10244020;28;20047;-65
2021/12/12 11:16:15;;;;;;;11.50;7.80;;;;;;;4.71;80.63;101084.44;10252961;28;20556;-64
2021/12/12 11:21:33;;;;;;;11.10;7.47;;;;;;;4.73;80.82;101087.88;10254006;28;20512;-64
2021/12/12 11:26:42;;;;;;;9.13;7.35;;;;;;;4.77;80.17;101070.97;10257832;28;20038;-66
2021/12/12 11:31:55;;;;;;;11.38;7.80;;;;;;;4.65;80.19;101087.34;10248945;28;20046;-64
2021/12/12 11:37:15;;;;;;;9.27;7.40;;;;;;;4.54;81.48;101086.00;10255794;28;20051;-64
2021/12/12 11:42:28;;;;;;;11.52;7.97;;;;;;;4.69;80.65;101081.00;10259753;28;20058;-65
2021/12/12 11:47:49;;;;;;;10.65;9.00;;;;;;;4.67;80.83;101070.53;10259037;28;20042;-65
2021/12/12 11:52:57;;;;;;;12.25;9.45;;;;;;;4.84;80.19;101068.94;10256520;28;20086;-64
2021/12/12 11:58:27;;;;;;;10.10;6.70;;;;;;;5.05;78.46;101089.09;10257406;28;20884;-64
2021/12/12 12:03:46;;;;;;;9.98;8.30;;;;;;;5.07;78.53;101097.78;10257318;28;20156;-65
2021/12/12 12:09:11;;;;;;;10.20;7.47;;;;;;;5.04;78.27;101091.81;10254904;28;20413;-64
2021/12/12 12:14:15;;;;;;;8.50;6.90;;;;;;;5.03;78.38;101095.38;10268757;28;20505;-65
2021/12/12 12:19:34;;;;;;;8.83;7.47;;;;;;;4.88;77.95;101084.56;10259273;28;20065;-65
2021/12/12 12:25:13;;;;;;;13.02;7.43;;;;;;;4.84;78.20;101080.34;10242129;28;20546;-64
2021/12/12 12:30:29;;;;;;;10.07;8.13;;;;;;;4.89;78.12;101067.78;10259811;28;20069;-63
2021/12/12 12:36:02;;;;;;;8.13;7.20;;;;;;;4.91;78.09;101071.25;10254170;28;20063;-63
2021/12/12 12:41:41;;;;;;;9.75;7.35;;;;;;;4.99;78.31;101067.41;10236657;28;20051;-64
2021/12/12 12:47:07;;;;;;;10.85;8.27;;;;;;;5.01;78.87;101068.19;10237274;28;20046;-63
2021/12/12 12:52:24;;;;;;;10.30;7.10;;;;;;;5.01;78.99;101065.56;10254049;28;20421;-65
2021/12/12 12:57:38;;;;;;;8.95;7.15;;;;;;;4.91;79.94;101055.41;10253352;28;20093;-64
2021/12/12 13:03:05;;;;;;;9.07;6.93;;;;;;;4.93;80.68;101058.00;10251700;28;20057;-64
2021/12/12 13:08:43;;;;;;;20.90;15.23;;;;;;;4.89;82.38;101051.13;10248362;28;20173;-64
2021/12/12 13:13:59;;;;;;;10.00;6.55;;;;;;;5.01;81.24;101049.72;10250049;28;20066;-66
2021/12/12 13:19:09;;;;;;;14.43;10.82;;;;;;;4.91;82.10;101047.50;10251015;28;20039;-65
2021/12/12 13:24:20;;;;;;;11.80;7.30;;;;;;;5.01;81.77;101049.72;10234265;28;20424;-65
2021/12/12 13:29:44;;;;;;;10.68;8.48;;;;;;;5.06;81.65;101053.88;10238500;28;20542;-65
2021/12/12 13:34:56;;;;;;;12.93;8.60;;;;;;;4.96;81.56;101053.41;10255970;28;20130;-65
2021/12/12 13:40:36;;;;;;;11.80;7.50;;;;;;;5.13;81.22;101060.59;10257286;28;20043;-65
2021/12/12 13:45:39;;;;;;;10.43;7.43;;;;;;;5.28;80.05;101059.06;10256729;28;20370;-65
2021/12/12 13:50:52;;;;;;;11.30;7.22;;;;;;;5.32;79.56;101060.59;10255247;28;20050;-65
2021/12/12 13:55:59;;;;;;;11.20;6.53;;;;;;;5.48;78.25;101055.50;10257292;28;20062;-65
2021/12/12 14:01:06;;;;;;;9.02;6.97;;;;;;;5.48;77.75;101062.56;10253983;28;20065;-65
2021/12/12 14:06:14;;;;;;;9.23;6.93;;;;;;;5.59;77.22;101064.69;10257396;28;20054;-65
2021/12/12 14:11:27;;;;;;;8.88;7.13;;;;;;;5.55;76.44;101061.31;10257413;28;20162;-65
2021/12/12 14:16:36;;;;;;;9.52;6.53;;;;;;;5.60;76.55;101059.34;10257173;28;20049;-65
2021/12/12 14:21:41;;;;;;;13.50;6.82;;;;;;;5.68;75.92;101066.06;10260882;28;20193;-65
2021/12/12 14:26:49;;;;;;;8.63;5.80;;;;;;;5.47;76.93;101058.19;10256730;28;20098;-65
2021/12/12 14:31:53;;;;;;;8.10;6.00;;;;;;;5.39;77.61;101058.56;10237713;28;20506;-65
2021/12/12 14:37:00;;;;;;;8.77;6.55;;;;;;;5.38;77.83;101061.28;10266678;28;20136;-65
2021/12/12 14:42:22;;;;;;;6.43;5.72;;;;;;;5.25;77.10;101059.16;10252309;28;20137;-65
2021/12/12 14:47:30;;;;;;;13.60;6.32;;;;;;;5.13;77.76;101059.72;10252868;28;20046;-64
2021/12/12 14:52:34;;;;;;;14.35;10.27;;;;;;;5.29;77.57;101062.53;10253542;28;20137;-65
2021/12/12 14:57:36;;;;;;;9.37;5.40;;;;;;;5.29;76.83;101060.75;10255317;28;20046;-65
2021/12/12 15:02:49;;;;;;;7.90;5.13;;;;;;;5.32;76.43;101070.31;10255325;28;20593;-65
2021/12/12 15:07:54;;;;;;;8.48;6.10;;;;;;;5.37;75.63;101078.03;10253372;28;20051;-66
2021/12/12 15:13:00;;;;;;;5.45;4.25;;;;;;;5.28;75.62;101064.34;10261060;23;20058;-57
2021/12/12 15:18:08;;;;;;;13.43;7.70;;;;;;;5.31;75.63;101065.97;10228178;28;21379;-63
2021/12/12 15:23:16;;;;;;;12.20;6.25;;;;;;;5.11;76.34;101062.44;10235477;28;20071;-60
2021/12/12 15:28:20;;;;;;;7.82;5.53;;;;;;;5.35;76.47;101069.34;10224904;28;20065;-62
2021/12/12 15:33:25;;;;;;;9.27;5.17;;;;;;;5.46;76.64;101082.88;10223420;28;20066;-61
2021/12/12 15:38:30;;;;;;;10.07;6.00;;;;;;;5.43;76.82;101075.09;10221631;28;20347;-61
2021/12/12 15:43:45;;;;;;;9.27;5.72;;;;;;;5.35;77.42;101061.41;10227292;28;20051;-61
2021/12/12 15:49:04;;;;;;;8.48;6.18;;;;;;;5.38;77.95;101066.56;10223533;28;20055;-64
2021/12/12 15:54:10;;;;;;;12.15;8.63;;;;;;;5.41;78.68;101079.63;10222095;28;20063;-64
2021/12/12 15:59:20;;;;;;;7.72;6.03;;;;;;;5.40;79.63;101080.53;10222488;28;20421;-61
2021/12/12 16:04:26;;;;;;;9.68;6.40;;;;;;;5.18;80.16;101078.88;10227469;28;20529;-62
2021/12/12 16:09:34;;;;;;;10.90;6.18;;;;;;;5.14;80.51;101078.13;10232662;28;20075;-62
2021/12/12 16:14:37;;;;;;;9.55;5.47;;;;;;;5.25;80.73;101101.41;10226007;28;20055;-61
2021/12/12 16:19:53;;;;;;;10.05;6.70;;;;;;;5.22;81.16;101103.34;10230374;28;20043;-62
2021/12/12 16:25:08;;;;;;;7.70;6.15;;;;;;;5.19;82.22;101112.25;10220469;28;20552;-63
2021/12/12 16:30:35;;;;;;;10.95;6.47;;;;;;;5.25;83.07;101117.25;10250146;28;20494;-62
2021/12/12 16:35:39;;;;;;;9.90;6.38;;;;;;;5.19;83.28;101112.25;10233945;28;20070;-62
2021/12/12 16:40:45;;;;;;;10.68;7.05;;;;;;;5.32;83.56;101123.13;10234385;28;22717;-61
2021/12/12 16:45:53;;;;;;;10.15;6.07;;;;;;;5.28;82.66;101117.13;10207039;28;20047;-62
2021/12/12 16:50:57;;;;;;;10.85;6.28;;;;;;;5.20;83.86;101103.41;10208599;28;20051;-61
2021/12/12 16:56:00;;;;;;;8.23;5.68;;;;;;;5.40;84.04;101120.13;10230151;28;20051;-61
2021/12/12 17:01:34;;;;;;;8.30;6.40;;;;;;;5.29;84.32;101124.09;10227214;28;20073;-61
2021/12/12 17:06:40;;;;;;;8.73;6.18;;;;;;;5.30;84.74;101125.84;10233367;28;20078;-61
2021/12/12 17:12:11;;;;;;;9.45;6.57;;;;;;;5.39;84.20;101139.53;10216029;28;20051;-61
2021/12/12 17:17:20;;;;;;;11.30;7.22;;;;;;;5.27;84.62;101131.25;10219241;28;20038;-62
2021/12/12 17:22:24;;;;;;;9.23;6.68;;;;;;;5.44;84.72;101132.28;10215232;28;20055;-62
2021/12/12 17:27:31;;;;;;;10.10;7.30;;;;;;;5.46;83.82;101136.56;10236121;28;20046;-62
2021/12/12 17:32:53;;;;;;;10.93;7.82;;;;;;;5.43;83.62;101136.69;10233411;28;20051;-62
2021/12/12 17:37:57;;;;;;;8.20;6.47;;;;;;;5.29;85.30;101133.81;10230125;28;20054;-61
2021/12/12 17:43:14;;;;;;;10.05;6.47;;;;;;;5.21;86.21;101142.09;10231589;28;20057;-61
2021/12/12 17:48:57;;;;;;;18.58;13.82;;;;;;;5.21;87.17;101139.44;10237664;28;20061;-67
2021/12/12 17:54:05;;;;;;;10.20;7.07;;;;;;;5.19;87.20;101143.06;10226422;28;20047;-62
2021/12/12 17:59:29;;;;;;;8.90;6.90;;;;;;;5.21;87.44;101147.38;10229376;28;20107;-62
2021/12/12 18:04:31;;;;;;;9.38;6.75;;;;;;;5.13;88.32;101144.19;10236688;28;20573;-61
2021/12/12 18:09:32;;;;;;;15.35;8.45;;;;;;;5.10;88.85;101139.91;10234770;28;20151;-62
2021/12/12 18:14:41;;;;;;;10.02;8.35;;;;;;;4.94;90.04;101134.44;10216045;28;20130;-62
2021/12/12 18:19:55;;;;;;;8.75;7.30;;;;;;;5.12;93.15;101145.97;10245195;28;20118;-61
2021/12/12 18:24:59;;;;;;;13.05;8.55;;;;;;;5.37;91.44;101144.88;10239468;28;20137;-62
2021/12/12 18:30:06;;;;;;;10.20;7.23;;;;;;;5.27;90.21;101139.16;10228621;28;20063;-63
2021/12/12 18:35:27;;;;;;;9.73;7.78;;;;;;;5.36;90.59;101140.56;10212427;28;20058;-61
2021/12/12 18:40:39;;;;;;;12.90;7.55;;;;;;;5.41;90.85;101148.25;10229931;28;20105;-63
2021/12/12 18:45:44;;;;;;;17.27;8.05;;;;;;;5.45;90.62;101149.81;10230892;28;20047;-61
2021/12/12 18:50:49;;;;;;;11.27;8.20;;;;;;;5.49;90.77;101151.41;10209077;28;20058;-60
2021/12/12 18:55:58;;;;;;;11.70;8.82;;;;;;;5.53;90.23;101166.19;10222584;28;20471;-61
2021/12/12 19:01:14;;;;;;;15.57;9.30;;;;;;;5.40;90.40;101152.66;10222877;28;20047;-62
2021/12/12 19:06:40;;;;;;;13.70;9.90;;;;;;;5.42;90.43;101168.44;10229405;28;20410;-62
2021/12/12 19:11:42;;;;;;;14.07;8.35;;;;;;;5.47;90.53;101174.41;10224651;28;20158;-62
2021/12/12 19:16:47;;;;;;;12.80;9.15;;;;;;;5.47;90.82;101174.41;10224750;28;20046;-67
2021/12/12 19:21:50;;;;;;;12.50;9.18;;;;;;;5.44;90.81;101178.03;10225702;28;20050;-61
2021/12/12 19:26:58;;;;;;;13.55;8.68;;;;;;;5.39;91.54;101171.22;10228465;28;20526;-61
2021/12/12 19:32:07;;;;;;;14.38;9.90;;;;;;;5.28;92.10;101169.94;10221524;28;20061;-63
2021/12/12 19:37:11;;;;;;;12.77;9.55;;;;;;;5.30;92.82;101183.91;10223001;28;20341;-61
2021/12/12 19:42:35;;;;;;;16.57;10.90;;;;;;;5.35;92.82;101181.06;10226029;28;20055;-62
2021/12/12 19:47:38;;;;;;;15.10;9.52;;;;;;;5.32;92.96;101182.06;10207726;28;20063;-62
2021/12/12 19:52:41;;;;;;;15.77;10.70;;;;;;;5.52;92.19;101187.38;10237061;28;20058;-62
2021/12/12 19:57:45;;;;;;;15.25;9.93;;;;;;;5.51;92.36;101189.19;10210049;28;20375;-62
2021/12/12 20:02:46;;;;;;;13.63;9.52;;;;;;;5.51;91.85;101189.19;10233131;28;20057;-62
2021/12/12 20:07:49;;;;;;;14.95;11.05;;;;;;;5.59;91.67;101188.84;10235298;28;20054;-62
2021/12/12 20:12:58;;;;;;;12.60;10.55;;;;;;;5.56;91.99;101184.53;10273412;28;20481;-61
2021/12/12 20:18:00;;;;;;;14.93;9.98;;;;;;;5.48;91.65;101184.03;10240208;28;20073;-63
2021/12/12 20:23:08;;;;;;;13.15;10.05;;;;;;;5.46;92.45;101186.75;10226821;28;20043;-62
2021/12/12 20:28:29;;;;;;;14.10;10.65;;;;;;;5.52;92.39;101187.38;10222499;28;20174;-61
2021/12/12 20:33:32;;;;;;;13.23;10.32;;;;;;;5.62;92.10;101199.28;10226677;28;20058;-62
2021/12/12 20:38:39;;;;;;;13.20;9.27;;;;;;;5.72;91.19;101199.69;10225825;28;20453;-61
2021/12/12 20:43:45;;;;;;;14.93;10.63;;;;;;;5.68;91.44;101198.16;10230414;28;20807;-62
2021/12/12 20:48:53;;;;;;;11.57;9.65;;;;;;;5.61;91.40;101193.09;10233258;28;20871;-62
2021/12/12 20:54:07;;;;;;;16.58;11.00;;;;;;;5.55;92.04;101185.47;10213536;28;20190;-61
2021/12/12 20:59:12;;;;;;;11.48;10.07;;;;;;;5.58;92.57;101193.25;10221106;28;20066;-60
2021/12/12 21:04:43;;;;;;;16.33;12.07;;;;;;;5.50;93.07;101184.81;10228367;28;20051;-63
2021/12/12 21:09:50;;;;;;;19.90;12.20;;;;;;;5.20;92.44;101128.94;10217761;28;20054;-62
2021/12/12 21:14:59;;;;;;;15.27;11.90;;;;;;;5.58;92.29;101182.69;10232948;28;20059;-62
2021/12/12 21:20:10;;;;;;;16.90;12.02;;;;;;;5.67;92.28;101186.69;10230256;28;20069;-63
2021/12/12 21:25:28;;;;;;;16.65;12.75;;;;;;;5.71;92.66;101190.06;10234638;28;20047;-63
2021/12/12 21:30:31;;;;;;;18.85;13.88;;;;;;;5.71;93.34;101190.06;10242054;28;20478;-60
2021/12/12 21:35:38;;;;;;;17.63;13.43;;;;;;;5.70;93.64;101191.00;10231790;28;20548;-64
2021/12/12 21:40:40;;;;;;;14.20;12.18;;;;;;;5.68;93.85;101187.56;10223400;28;20165;-62
2021/12/12 21:45:42;;;;;;;17.40;14.35;;;;;;;5.61;94.20;101187.81;10242823;28;20146;-61
2021/12/12 21:50:48;;;;;;;13.85;12.38;;;;;;;5.68;94.32;101192.84;10234372;28;20065;-63
2021/12/12 21:56:03;;;;;;;15.93;12.85;;;;;;;5.70;94.27;101201.56;10235239;28;20138;-61
2021/12/12 22:01:16;;;;;;;12.70;10.13;;;;;;;5.71;94.88;101211.22;10214911;28;20544;-62
2021/12/12 22:06:20;;;;;;;16.38;12.07;;;;;;;5.52;94.67;101175.03;10229743;28;20061;-61
2021/12/12 22:11:28;;;;;;;15.38;13.02;;;;;;;5.73;95.15;101206.72;10217688;28;20582;-64
2021/12/12 22:16:33;;;;;;;16.25;12.07;;;;;;;5.76;94.98;101217.13;10223997;28;20106;-62
2021/12/12 22:21:39;;;;;;;16.63;12.90;;;;;;;5.72;94.97;101199.69;10245439;28;20500;-63
2021/12/12 22:26:45;;;;;;;18.48;13.45;;;;;;;5.90;93.82;101217.38;10263774;28;20050;-62
2021/12/12 22:31:53;;;;;;;15.93;13.38;;;;;;;5.87;94.36;101214.88;10256027;28;20042;-64
2021/12/12 22:36:57;;;;;;;14.05;12.55;;;;;;;5.98;93.75;101223.19;10272812;28;20130;-64
2021/12/12 22:42:13;;;;;;;16.60;13.82;;;;;;;5.79;94.07;101190.56;10270622;28;20052;-64
2021/12/12 22:47:18;;;;;;;15.82;13.75;;;;;;;5.95;94.08;101227.75;10269108;28;20148;-64
2021/12/12 22:52:46;;;;;;;15.63;14.10;;;;;;;5.91;94.31;101232.28;10270002;28;20532;-65
2021/12/12 22:57:51;;;;;;;19.85;14.40;;;;;;;5.91;94.92;101227.00;10268355;28;20039;-64
2021/12/12 23:02:54;;;;;;;17.98;14.07;;;;;;;5.95;95.32;101230.38;10254828;28;20125;-62
2021/12/12 23:08:00;;;;;;;19.58;15.23;;;;;;;5.94;95.08;101218.94;10269660;28;20125;-62
2021/12/12 23:13:12;;;;;;;17.38;13.90;;;;;;;5.94;95.31;101236.59;10270656;28;20047;-63
2021/12/12 23:18:26;;;;;;;17.48;13.77;;;;;;;5.89;96.27;101231.50;10269805;28;20569;-63
2021/12/12 23:23:36;;;;;;;17.35;14.82;;;;;;;5.84;96.11;101215.03;10268196;28;20070;-63
2021/12/12 23:34:04;;;;;;;15.60;13.48;;;;;;;5.94;96.51;101221.56;10279975;28;20077;-62
2021/12/12 23:39:14;;;;;;;19.98;15.45;;;;;;;5.89;96.70;101220.09;10268598;28;20046;-62
2021/12/12 23:44:33;;;;;;;18.58;15.13;;;;;;;5.93;96.31;101225.16;10269827;28;20129;-62
2021/12/12 23:49:40;;;;;;;19.42;14.40;;;;;;;5.98;96.58;101233.75;10260682;28;20050;-62
2021/12/12 23:54:56;;;;;;;19.35;15.23;;;;;;;5.95;96.65;101214.53;10243373;28;20049;-62
